createdAt,value
2019-02-23T00:02:21.294Z,90.40
2019-02-23T00:07:20.826Z,90.40
2019-02-23T00:12:20.353Z,90.50
2019-02-23T00:17:19.925Z,90.20
2019-02-23T00:22:19.519Z,92.50
2019-02-23T00:27:19.058Z,93.20
2019-02-23T00:32:18.586Z,94.70
2019-02-23T00:37:19.091Z,93.30
2019-02-23T00:42:18.634Z,93.20
2019-02-23T00:47:18.162Z,92.60
2019-02-23T00:52:17.682Z,92.10
2019-02-23T00:57:17.214Z,93.70
2019-02-23T01:02:16.740Z,95.60
2019-02-23T01:07:16.263Z,94.40
2019-02-23T01:12:15.773Z,93.60
2019-02-23T01:17:15.304Z,94.00
2019-02-23T01:22:14.848Z,92.80
2019-02-23T01:27:16.694Z,94.50
2019-02-23T01:32:16.302Z,95.90
2019-02-23T01:37:15.826Z,96.20
2019-02-23T01:42:15.354Z,95.20
2019-02-23T01:47:14.873Z,95.80
2019-02-23T01:52:14.393Z,96.50
2019-02-23T01:57:13.926Z,98.50
2019-02-23T02:02:14.533Z,99.00
2019-02-23T02:07:15.026Z,99.60
2019-02-23T02:12:16.106Z,99.50
2019-02-23T02:17:15.830Z,99.90
2019-02-23T02:22:15.358Z,99.90
2019-02-23T02:27:16.030Z,99.90
2019-02-23T02:32:16.533Z,99.90
2019-02-23T02:37:16.073Z,99.90
2019-02-23T02:42:15.594Z,99.90
2019-02-23T02:47:15.131Z,99.90
2019-02-23T02:52:14.666Z,99.90
2019-02-23T02:57:14.198Z,99.90
2019-02-23T03:02:13.725Z,99.90
2019-02-23T03:07:13.253Z,99.90
2019-02-23T03:12:12.784Z,99.90
2019-02-23T03:17:12.327Z,99.90
2019-02-23T03:22:11.862Z,99.90
2019-02-23T03:27:11.385Z,99.90
2019-02-23T03:32:10.941Z,99.90
2019-02-23T03:37:10.461Z,99.90
2019-02-23T03:42:09.984Z,99.90
2019-02-23T03:47:09.739Z,99.90
2019-02-23T03:52:09.337Z,99.90
2019-02-23T03:57:08.870Z,99.90
2019-02-23T04:02:08.394Z,99.90
2019-02-23T04:07:07.922Z,99.90
2019-02-23T04:12:07.445Z,99.90
2019-02-23T04:17:06.991Z,99.90
2019-02-23T04:22:06.587Z,99.90
2019-02-23T04:27:06.115Z,99.90
2019-02-23T04:32:05.633Z,99.90
2019-02-23T04:37:05.170Z,99.90
2019-02-23T04:42:04.692Z,99.90
2019-02-23T04:47:04.217Z,99.90
2019-02-23T04:52:03.750Z,99.90
2019-02-23T04:57:03.317Z,99.90
2019-02-23T05:02:02.842Z,99.90
2019-02-23T05:07:02.377Z,99.90
2019-02-23T05:12:01.982Z,99.90
2019-02-23T05:17:01.508Z,99.90
2019-02-23T05:22:01.029Z,99.90
2019-02-23T05:27:00.557Z,99.90
2019-02-23T05:32:00.089Z,99.90
2019-02-23T05:36:59.641Z,99.90
2019-02-23T05:41:59.178Z,99.90
2019-02-23T05:46:58.730Z,99.90
2019-02-23T05:51:58.266Z,99.90
2019-02-23T05:56:57.811Z,99.90
2019-02-23T06:01:57.498Z,99.90
2019-02-23T06:06:57.029Z,99.90
2019-02-23T06:11:56.552Z,99.90
2019-02-23T06:16:56.082Z,99.90
2019-02-23T06:21:55.652Z,99.90
2019-02-23T06:26:55.246Z,99.90
2019-02-23T06:31:55.745Z,99.90
2019-02-23T06:36:55.278Z,99.90
2019-02-23T06:41:54.809Z,99.90
2019-02-23T06:46:54.338Z,99.90
2019-02-23T06:52:03.949Z,99.90
2019-02-23T06:56:55.097Z,99.90
2019-02-23T07:01:56.659Z,99.90
2019-02-23T07:06:55.864Z,99.90
2019-02-23T07:11:55.465Z,99.90
2019-02-23T07:16:55.013Z,99.90
2019-02-23T07:21:54.541Z,99.90
2019-02-23T07:26:54.070Z,99.90
2019-02-23T07:31:53.669Z,99.90
2019-02-23T07:36:53.322Z,99.90
2019-02-23T07:41:52.861Z,99.90
2019-02-23T07:46:52.389Z,99.90
2019-02-23T07:51:52.745Z,99.90
2019-02-23T07:56:52.278Z,99.90
2019-02-23T08:01:51.849Z,99.90
2019-02-23T08:06:51.385Z,99.90
2019-02-23T08:11:50.929Z,99.90
2019-02-23T08:16:50.473Z,99.90
2019-02-23T08:21:50.017Z,99.90
2019-02-23T08:26:49.533Z,99.90
2019-02-23T08:31:49.065Z,99.90
2019-02-23T08:36:48.602Z,99.70
2019-02-23T08:41:48.153Z,95.00
2019-02-23T08:46:47.682Z,92.50
2019-02-23T08:51:47.201Z,93.20
2019-02-23T08:56:47.077Z,89.30
2019-02-23T09:01:46.657Z,87.40
2019-02-23T09:06:46.190Z,88.90
2019-02-23T09:11:45.842Z,72.50
2019-02-23T09:16:45.366Z,74.30
2019-02-23T09:21:44.898Z,61.00
2019-02-23T09:26:44.426Z,59.70
2019-02-23T09:31:43.956Z,54.20
2019-02-23T09:36:43.482Z,53.40
2019-02-23T09:41:43.046Z,53.60
2019-02-23T09:46:42.595Z,53.10
2019-02-23T09:51:42.136Z,52.50
2019-02-23T09:56:41.661Z,53.60
2019-02-23T10:01:41.179Z,53.10
2019-02-23T10:06:40.705Z,50.90
2019-02-23T10:11:40.229Z,50.40
2019-02-23T10:16:39.753Z,46.20
2019-02-23T10:21:39.273Z,45.80
2019-02-23T10:26:38.797Z,44.80
2019-02-23T10:31:38.324Z,47.10
2019-02-23T10:36:37.845Z,46.10
2019-02-23T10:41:37.377Z,41.60
2019-02-23T10:46:36.997Z,36.40
2019-02-23T10:51:36.596Z,34.90
2019-02-23T10:56:36.142Z,37.10
2019-02-23T11:01:35.666Z,36.50
2019-02-23T11:06:35.212Z,33.70
2019-02-23T11:11:34.750Z,31.20
2019-02-23T11:16:34.286Z,30.00
2019-02-23T11:21:33.990Z,32.90
2019-02-23T11:26:33.605Z,32.70
2019-02-23T11:31:33.141Z,33.80
2019-02-23T11:36:32.698Z,31.20
2019-02-23T11:41:32.354Z,31.60
2019-02-23T11:46:31.993Z,32.10
2019-02-23T11:51:31.533Z,30.00
2019-02-23T11:56:31.086Z,30.40
2019-02-23T12:01:30.717Z,31.80
2019-02-23T12:06:31.241Z,29.30
2019-02-23T12:11:31.753Z,30.30
2019-02-23T12:16:31.365Z,27.50
2019-02-23T12:21:30.898Z,25.90
2019-02-23T12:26:30.445Z,26.90
2019-02-23T12:31:29.980Z,27.10
2019-02-23T12:36:29.511Z,27.90
2019-02-23T12:41:29.045Z,29.50
2019-02-23T12:46:28.577Z,30.70
2019-02-23T12:51:28.109Z,31.00
2019-02-23T12:56:27.652Z,31.50
2019-02-23T13:01:27.199Z,30.40
2019-02-23T13:06:26.743Z,31.60
2019-02-23T13:11:26.269Z,32.10
2019-02-23T13:16:38.732Z,32.50
2019-02-23T13:22:05.290Z,33.70
2019-02-23T13:27:28.085Z,35.30
2019-02-23T13:32:50.217Z,33.00
2019-02-23T13:38:22.494Z,33.70
2019-02-23T13:43:42.466Z,34.20
2019-02-23T13:49:24.254Z,34.50
2019-02-23T13:55:07.914Z,34.60
2019-02-23T14:00:46.298Z,34.90
2019-02-23T14:05:53.670Z,33.80
2019-02-23T14:11:24.452Z,36.20
2019-02-23T14:16:46.853Z,36.40
2019-02-23T14:22:26.772Z,33.30
2019-02-23T14:28:07.569Z,32.80
2019-02-23T14:33:26.138Z,33.50
2019-02-23T14:38:56.798Z,36.40
2019-02-23T14:44:11.890Z,33.60
2019-02-23T14:49:38.516Z,34.30
2019-02-23T14:55:00.472Z,35.10
2019-02-23T15:00:21.923Z,36.10
2019-02-23T15:05:59.506Z,36.10
2019-02-23T15:11:18.819Z,36.60
2019-02-23T15:16:33.892Z,36.00
2019-02-23T15:21:55.525Z,36.00
2019-02-23T15:27:24.086Z,36.40
2019-02-23T15:33:00.282Z,37.40
2019-02-23T15:38:36.953Z,38.00
2019-02-23T15:44:21.887Z,36.10
2019-02-23T15:49:32.346Z,34.10
2019-02-23T15:54:31.970Z,32.90
2019-02-23T15:59:31.564Z,33.20
2019-02-23T16:04:31.121Z,33.80
2019-02-23T16:09:30.722Z,34.40
2019-02-23T16:14:30.271Z,34.70
2019-02-23T16:19:29.805Z,35.50
2019-02-23T16:24:29.339Z,35.40
2019-02-23T16:29:28.865Z,36.30
2019-02-23T16:34:28.408Z,36.40
2019-02-23T16:39:27.929Z,36.90
2019-02-23T16:44:27.520Z,37.40
2019-02-23T16:49:27.075Z,37.50
2019-02-23T16:54:26.617Z,37.80
2019-02-23T16:59:26.168Z,38.90
2019-02-23T17:04:25.677Z,39.50
2019-02-23T17:09:25.798Z,40.20
2019-02-23T17:14:25.649Z,40.80
2019-02-23T17:19:25.289Z,41.50
2019-02-23T17:24:24.884Z,42.60
2019-02-23T17:29:24.418Z,42.60
2019-02-23T17:34:23.947Z,43.20
2019-02-23T17:39:23.473Z,43.90
2019-02-23T17:44:23.022Z,44.30
2019-02-23T17:49:22.554Z,45.40
2019-02-23T17:54:22.182Z,45.80
2019-02-23T17:59:21.709Z,46.10
2019-02-23T18:04:21.238Z,46.50
2019-02-23T18:09:20.765Z,46.80
2019-02-23T18:14:20.289Z,47.60
2019-02-23T18:19:19.828Z,48.60
2019-02-23T18:24:19.364Z,48.90
2019-02-23T18:29:18.895Z,49.80
2019-02-23T18:34:18.430Z,50.50
2019-02-23T18:39:18.119Z,50.60
2019-02-23T18:44:17.644Z,51.00
2019-02-23T18:49:17.185Z,52.30
2019-02-23T18:54:16.725Z,53.00
2019-02-23T18:59:16.259Z,53.40
2019-02-23T19:04:15.787Z,54.30
2019-02-23T19:09:15.397Z,55.20
2019-02-23T19:14:14.929Z,54.80
2019-02-23T19:19:14.465Z,55.20
2019-02-23T19:24:14.021Z,54.90
2019-02-23T19:29:13.567Z,55.90
2019-02-23T19:34:13.102Z,56.00
2019-02-23T19:39:13.083Z,55.60
2019-02-23T19:44:13.080Z,56.70
2019-02-23T19:49:12.612Z,56.80
2019-02-23T19:54:13.768Z,58.00
2019-02-23T19:59:13.610Z,59.00
2019-02-23T20:04:13.309Z,60.10
2019-02-23T20:09:12.992Z,60.20
2019-02-23T20:14:12.913Z,60.30
2019-02-23T20:19:12.609Z,62.80
2019-02-23T20:24:12.157Z,64.60
2019-02-23T20:29:11.813Z,65.60
2019-02-23T20:34:11.389Z,66.50
2019-02-23T20:39:10.985Z,67.80
2019-02-23T20:44:11.232Z,69.20
2019-02-23T20:49:10.834Z,71.60
2019-02-23T20:54:10.457Z,71.30
2019-02-23T20:59:10.006Z,76.20
2019-02-23T21:04:09.542Z,75.90
2019-02-23T21:09:09.217Z,80.00
2019-02-23T21:14:10.459Z,81.50
2019-02-23T21:19:10.080Z,83.70
2019-02-23T21:24:09.637Z,82.80
2019-02-23T21:29:09.237Z,86.30
2019-02-23T21:34:08.786Z,89.80
2019-02-23T21:39:08.402Z,91.30
2019-02-23T21:44:09.609Z,91.10
2019-02-23T21:49:09.498Z,91.60
2019-02-23T21:54:10.367Z,93.10
2019-02-23T21:59:10.715Z,94.20
2019-02-23T22:04:10.325Z,94.80
2019-02-23T22:09:10.043Z,95.90
2019-02-23T22:14:11.037Z,97.00
2019-02-23T22:19:10.611Z,97.60
2019-02-23T22:24:10.159Z,98.10
2019-02-23T22:29:09.738Z,99.30
2019-02-23T22:34:09.342Z,99.90
2019-02-23T22:39:08.942Z,99.90
2019-02-23T22:44:09.206Z,99.90
2019-02-23T22:49:08.762Z,99.90
2019-02-23T22:54:08.304Z,99.90
2019-02-23T22:59:07.836Z,99.90
2019-02-23T23:04:07.445Z,99.90
2019-02-23T23:09:10.487Z,99.90
2019-02-23T23:14:11.183Z,99.90
2019-02-23T23:19:10.717Z,99.90
2019-02-23T23:24:11.225Z,99.90
2019-02-23T23:29:10.763Z,99.90
2019-02-23T23:34:10.306Z,99.90
2019-02-23T23:39:10.088Z,99.90
2019-02-23T23:44:09.705Z,99.90
2019-02-23T23:49:09.237Z,99.90
2019-02-23T23:54:08.841Z,99.90
2019-02-23T23:59:08.400Z,99.90
